aviador You're here:

LFOC Decoded Metar

CHATEAUDUN in FRANCE
Report Time2018-02-20 03:00:00
UTC Time2018-02-20 03:22:34
Flight Rules lifr LIFR
Wind260° at 06 kt
W.Decomp.*RWY 28: 5.7 kt HW 2 kt LCW
W.Rank260° ranks 7
Current wind is below 260° avg. (8.5)
Visibility5000 m
Phenomena:Mist
Clouds:Broken 004 Hf
Overcast 009 Hf
Expected CloudBase > 400 ft AGL from Temp-Dew spread
Ceiling400 ft
Temp09°C (ISA -5)
Dew Point08°C (94% RH)
AAT6.4°C
QNH1014 hPa
Density Alt-89 ft
Elevation417 ft
Report Wrong Elevation
Raw Report
METAR LFOC 200300Z AUTO 26006KT 5000 BR BKN004 OVC009 09/08 Q1014=

Extra information for LFOC:More info

Metar Taf Metar & Taf Last 4 Metars F.Rules Stats Wind Profile Meteogram Temp Stats Airport Information Weather charts Add Link Nearby VenuesMetar ALERT Operation Metar Decoded Social comments